sensor_id;sensor_type;location;lat;lon;timestamp;P1;durP1;ratioP1;P2;durP2;ratioP2
5349;SDS011;2697;42.144;24.794;2023-04-06T00:00:32;9.20;;;5.83;;
5349;SDS011;2697;42.144;24.794;2023-04-06T00:02:57;9.90;;;4.97;;
5349;SDS011;2697;42.144;24.794;2023-04-06T00:05:23;7.23;;;4.73;;
5349;SDS011;2697;42.144;24.794;2023-04-06T00:07:49;11.80;;;5.70;;
5349;SDS011;2697;42.144;24.794;2023-04-06T00:10:15;12.37;;;7.27;;
5349;SDS011;2697;42.144;24.794;2023-04-06T00:12:41;9.80;;;5.60;;
5349;SDS011;2697;42.144;24.794;2023-04-06T00:15:07;11.97;;;6.83;;
5349;SDS011;2697;42.144;24.794;2023-04-06T00:17:32;7.70;;;5.23;;
5349;SDS011;2697;42.144;24.794;2023-04-06T00:19:58;12.50;;;6.87;;
5349;SDS011;2697;42.144;24.794;2023-04-06T00:22:23;6.40;;;4.33;;
5349;SDS011;2697;42.144;24.794;2023-04-06T00:24:49;7.80;;;4.83;;
5349;SDS011;2697;42.144;24.794;2023-04-06T00:27:14;13.00;;;6.00;;
5349;SDS011;2697;42.144;24.794;2023-04-06T00:29:40;9.40;;;6.03;;
5349;SDS011;2697;42.144;24.794;2023-04-06T00:32:05;5.20;;;4.60;;
5349;SDS011;2697;42.144;24.794;2023-04-06T00:34:30;10.73;;;6.80;;
5349;SDS011;2697;42.144;24.794;2023-04-06T00:36:56;9.03;;;5.43;;
5349;SDS011;2697;42.144;24.794;2023-04-06T00:39:21;9.47;;;6.43;;
5349;SDS011;2697;42.144;24.794;2023-04-06T00:41:49;10.10;;;5.70;;
5349;SDS011;2697;42.144;24.794;2023-04-06T00:44:16;11.43;;;5.97;;
5349;SDS011;2697;42.144;24.794;2023-04-06T00:46:41;29.67;;;6.63;;
5349;SDS011;2697;42.144;24.794;2023-04-06T00:49:07;16.47;;;5.77;;
5349;SDS011;2697;42.144;24.794;2023-04-06T00:51:32;11.73;;;6.13;;
5349;SDS011;2697;42.144;24.794;2023-04-06T00:53:58;12.03;;;6.53;;
5349;SDS011;2697;42.144;24.794;2023-04-06T00:56:23;9.60;;;5.50;;
5349;SDS011;2697;42.144;24.794;2023-04-06T00:58:49;10.67;;;6.43;;
5349;SDS011;2697;42.144;24.794;2023-04-06T01:01:15;15.00;;;5.50;;
5349;SDS011;2697;42.144;24.794;2023-04-06T01:03:41;8.80;;;5.10;;
5349;SDS011;2697;42.144;24.794;2023-04-06T01:06:07;10.57;;;6.30;;
5349;SDS011;2697;42.144;24.794;2023-04-06T01:08:32;14.30;;;5.97;;
5349;SDS011;2697;42.144;24.794;2023-04-06T01:11:01;13.97;;;7.00;;
5349;SDS011;2697;42.144;24.794;2023-04-06T01:13:26;9.20;;;5.43;;
5349;SDS011;2697;42.144;24.794;2023-04-06T01:15:52;10.07;;;6.37;;
5349;SDS011;2697;42.144;24.794;2023-04-06T01:18:18;10.67;;;6.60;;
5349;SDS011;2697;42.144;24.794;2023-04-06T01:20:43;12.53;;;6.40;;
5349;SDS011;2697;42.144;24.794;2023-04-06T01:23:08;8.40;;;5.87;;
5349;SDS011;2697;42.144;24.794;2023-04-06T01:25:34;7.70;;;5.10;;
5349;SDS011;2697;42.144;24.794;2023-04-06T01:27:59;11.00;;;5.60;;
5349;SDS011;2697;42.144;24.794;2023-04-06T01:30:25;8.50;;;5.30;;
5349;SDS011;2697;42.144;24.794;2023-04-06T01:32:51;12.33;;;7.40;;
5349;SDS011;2697;42.144;24.794;2023-04-06T01:35:18;11.00;;;6.57;;
5349;SDS011;2697;42.144;24.794;2023-04-06T01:37:44;10.70;;;5.83;;
5349;SDS011;2697;42.144;24.794;2023-04-06T01:40:10;11.10;;;7.07;;
5349;SDS011;2697;42.144;24.794;2023-04-06T01:42:36;11.87;;;6.40;;
5349;SDS011;2697;42.144;24.794;2023-04-06T01:45:02;11.37;;;8.00;;
5349;SDS011;2697;42.144;24.794;2023-04-06T01:47:27;11.20;;;6.60;;
5349;SDS011;2697;42.144;24.794;2023-04-06T01:49:53;8.57;;;6.30;;
5349;SDS011;2697;42.144;24.794;2023-04-06T01:52:18;8.63;;;5.17;;
5349;SDS011;2697;42.144;24.794;2023-04-06T01:54:43;11.00;;;5.50;;
5349;SDS011;2697;42.144;24.794;2023-04-06T01:57:10;11.47;;;6.37;;
5349;SDS011;2697;42.144;24.794;2023-04-06T01:59:35;7.60;;;5.63;;
5349;SDS011;2697;42.144;24.794;2023-04-06T02:02:01;7.77;;;5.37;;
5349;SDS011;2697;42.144;24.794;2023-04-06T02:04:26;17.53;;;6.20;;
5349;SDS011;2697;42.144;24.794;2023-04-06T02:06:52;11.50;;;5.67;;
5349;SDS011;2697;42.144;24.794;2023-04-06T02:09:17;7.23;;;5.03;;
5349;SDS011;2697;42.144;24.794;2023-04-06T02:11:43;12.00;;;6.77;;
5349;SDS011;2697;42.144;24.794;2023-04-06T02:14:08;10.00;;;5.60;;
5349;SDS011;2697;42.144;24.794;2023-04-06T02:16:33;8.23;;;5.60;;
5349;SDS011;2697;42.144;24.794;2023-04-06T02:18:59;9.17;;;6.10;;
5349;SDS011;2697;42.144;24.794;2023-04-06T02:21:24;9.27;;;5.20;;
5349;SDS011;2697;42.144;24.794;2023-04-06T02:23:49;10.00;;;5.77;;
5349;SDS011;2697;42.144;24.794;2023-04-06T02:26:15;12.33;;;5.90;;
5349;SDS011;2697;42.144;24.794;2023-04-06T02:28:40;8.73;;;5.20;;
5349;SDS011;2697;42.144;24.794;2023-04-06T02:31:06;14.37;;;6.10;;
5349;SDS011;2697;42.144;24.794;2023-04-06T02:33:31;11.00;;;7.37;;
5349;SDS011;2697;42.144;24.794;2023-04-06T02:35:56;12.07;;;7.27;;
5349;SDS011;2697;42.144;24.794;2023-04-06T02:38:22;10.10;;;7.03;;
5349;SDS011;2697;42.144;24.794;2023-04-06T02:40:47;9.87;;;6.80;;
5349;SDS011;2697;42.144;24.794;2023-04-06T02:43:12;13.80;;;7.17;;
5349;SDS011;2697;42.144;24.794;2023-04-06T02:45:38;14.77;;;6.83;;
5349;SDS011;2697;42.144;24.794;2023-04-06T02:48:03;13.13;;;6.83;;
5349;SDS011;2697;42.144;24.794;2023-04-06T02:50:29;13.20;;;7.63;;
5349;SDS011;2697;42.144;24.794;2023-04-06T02:52:55;12.30;;;7.40;;
5349;SDS011;2697;42.144;24.794;2023-04-06T02:55:20;11.77;;;6.00;;
5349;SDS011;2697;42.144;24.794;2023-04-06T02:57:45;10.13;;;7.20;;
5349;SDS011;2697;42.144;24.794;2023-04-06T03:00:11;9.30;;;6.17;;
5349;SDS011;2697;42.144;24.794;2023-04-06T03:02:37;15.40;;;7.30;;
5349;SDS011;2697;42.144;24.794;2023-04-06T03:05:03;15.00;;;7.10;;
5349;SDS011;2697;42.144;24.794;2023-04-06T03:07:28;12.53;;;7.30;;
5349;SDS011;2697;42.144;24.794;2023-04-06T03:09:54;12.63;;;7.50;;
5349;SDS011;2697;42.144;24.794;2023-04-06T03:12:20;10.90;;;7.30;;
5349;SDS011;2697;42.144;24.794;2023-04-06T03:14:45;17.53;;;8.03;;
5349;SDS011;2697;42.144;24.794;2023-04-06T03:17:11;13.17;;;7.97;;
5349;SDS011;2697;42.144;24.794;2023-04-06T03:19:36;13.20;;;7.43;;
5349;SDS011;2697;42.144;24.794;2023-04-06T03:22:01;9.43;;;5.90;;
5349;SDS011;2697;42.144;24.794;2023-04-06T03:24:27;12.37;;;6.73;;
5349;SDS011;2697;42.144;24.794;2023-04-06T03:26:52;12.60;;;6.63;;
5349;SDS011;2697;42.144;24.794;2023-04-06T03:29:18;10.80;;;7.53;;
5349;SDS011;2697;42.144;24.794;2023-04-06T03:31:43;14.60;;;8.17;;
5349;SDS011;2697;42.144;24.794;2023-04-06T03:34:09;17.27;;;8.30;;
5349;SDS011;2697;42.144;24.794;2023-04-06T03:36:36;10.63;;;6.90;;
5349;SDS011;2697;42.144;24.794;2023-04-06T03:39:01;20.47;;;10.23;;
5349;SDS011;2697;42.144;24.794;2023-04-06T03:41:27;13.10;;;7.80;;
5349;SDS011;2697;42.144;24.794;2023-04-06T03:43:52;16.63;;;8.40;;
5349;SDS011;2697;42.144;24.794;2023-04-06T03:46:18;13.07;;;7.87;;
5349;SDS011;2697;42.144;24.794;2023-04-06T03:48:43;15.10;;;9.20;;
5349;SDS011;2697;42.144;24.794;2023-04-06T03:51:10;12.20;;;7.03;;
5349;SDS011;2697;42.144;24.794;2023-04-06T03:53:36;20.03;;;8.33;;
5349;SDS011;2697;42.144;24.794;2023-04-06T03:56:02;14.00;;;8.67;;
5349;SDS011;2697;42.144;24.794;2023-04-06T03:58:27;17.10;;;10.30;;
5349;SDS011;2697;42.144;24.794;2023-04-06T04:00:53;15.20;;;8.50;;
5349;SDS011;2697;42.144;24.794;2023-04-06T04:03:18;14.30;;;8.70;;
5349;SDS011;2697;42.144;24.794;2023-04-06T04:05:44;18.13;;;8.40;;
5349;SDS011;2697;42.144;24.794;2023-04-06T04:08:10;22.20;;;9.57;;
5349;SDS011;2697;42.144;24.794;2023-04-06T04:10:35;18.57;;;9.80;;
5349;SDS011;2697;42.144;24.794;2023-04-06T04:13:00;16.80;;;8.80;;
5349;SDS011;2697;42.144;24.794;2023-04-06T04:15:26;17.10;;;9.03;;
5349;SDS011;2697;42.144;24.794;2023-04-06T04:17:51;13.20;;;8.40;;
5349;SDS011;2697;42.144;24.794;2023-04-06T04:20:16;17.40;;;8.10;;
5349;SDS011;2697;42.144;24.794;2023-04-06T04:22:42;16.90;;;9.57;;
5349;SDS011;2697;42.144;24.794;2023-04-06T04:25:08;11.80;;;7.67;;
5349;SDS011;2697;42.144;24.794;2023-04-06T04:27:34;13.00;;;6.70;;
5349;SDS011;2697;42.144;24.794;2023-04-06T04:30:00;15.90;;;7.40;;
5349;SDS011;2697;42.144;24.794;2023-04-06T04:32:25;11.67;;;7.47;;
5349;SDS011;2697;42.144;24.794;2023-04-06T04:34:52;10.50;;;7.07;;
5349;SDS011;2697;42.144;24.794;2023-04-06T04:37:18;20.03;;;8.07;;
5349;SDS011;2697;42.144;24.794;2023-04-06T04:39:44;10.00;;;6.00;;
5349;SDS011;2697;42.144;24.794;2023-04-06T04:42:10;24.73;;;6.87;;
5349;SDS011;2697;42.144;24.794;2023-04-06T04:44:35;15.23;;;6.80;;
5349;SDS011;2697;42.144;24.794;2023-04-06T04:47:01;17.73;;;8.40;;
5349;SDS011;2697;42.144;24.794;2023-04-06T04:49:26;12.83;;;5.90;;
5349;SDS011;2697;42.144;24.794;2023-04-06T04:51:51;10.37;;;6.90;;
5349;SDS011;2697;42.144;24.794;2023-04-06T04:54:17;23.93;;;7.80;;
5349;SDS011;2697;42.144;24.794;2023-04-06T04:56:43;14.67;;;7.60;;
5349;SDS011;2697;42.144;24.794;2023-04-06T04:59:10;14.83;;;7.50;;
5349;SDS011;2697;42.144;24.794;2023-04-06T05:01:35;28.73;;;7.63;;
5349;SDS011;2697;42.144;24.794;2023-04-06T05:04:00;19.70;;;7.20;;
5349;SDS011;2697;42.144;24.794;2023-04-06T05:06:26;22.50;;;6.70;;
5349;SDS011;2697;42.144;24.794;2023-04-06T05:08:51;10.00;;;5.77;;
5349;SDS011;2697;42.144;24.794;2023-04-06T05:11:16;14.50;;;8.00;;
5349;SDS011;2697;42.144;24.794;2023-04-06T05:13:42;9.67;;;5.73;;
5349;SDS011;2697;42.144;24.794;2023-04-06T05:16:07;16.33;;;7.47;;
5349;SDS011;2697;42.144;24.794;2023-04-06T05:18:33;9.47;;;5.67;;
5349;SDS011;2697;42.144;24.794;2023-04-06T05:20:58;11.27;;;7.00;;
5349;SDS011;2697;42.144;24.794;2023-04-06T05:23:24;23.20;;;7.37;;
5349;SDS011;2697;42.144;24.794;2023-04-06T05:25:49;12.50;;;6.70;;
5349;SDS011;2697;42.144;24.794;2023-04-06T05:28:15;5.50;;;3.67;;
5349;SDS011;2697;42.144;24.794;2023-04-06T05:30:42;7.20;;;5.03;;
5349;SDS011;2697;42.144;24.794;2023-04-06T05:33:08;10.73;;;6.37;;
5349;SDS011;2697;42.144;24.794;2023-04-06T05:35:34;9.00;;;6.00;;
5349;SDS011;2697;42.144;24.794;2023-04-06T05:38:00;12.63;;;6.20;;
5349;SDS011;2697;42.144;24.794;2023-04-06T05:40:25;8.37;;;6.43;;
5349;SDS011;2697;42.144;24.794;2023-04-06T05:42:51;10.83;;;5.70;;
5349;SDS011;2697;42.144;24.794;2023-04-06T05:45:16;13.70;;;6.53;;
5349;SDS011;2697;42.144;24.794;2023-04-06T05:47:43;13.13;;;6.23;;
5349;SDS011;2697;42.144;24.794;2023-04-06T05:50:09;18.10;;;6.90;;
5349;SDS011;2697;42.144;24.794;2023-04-06T05:52:35;12.27;;;5.93;;
5349;SDS011;2697;42.144;24.794;2023-04-06T05:55:01;9.27;;;6.20;;
5349;SDS011;2697;42.144;24.794;2023-04-06T05:57:27;8.17;;;5.47;;
5349;SDS011;2697;42.144;24.794;2023-04-06T05:59:53;12.10;;;6.20;;
5349;SDS011;2697;42.144;24.794;2023-04-06T06:02:18;7.80;;;5.43;;
5349;SDS011;2697;42.144;24.794;2023-04-06T06:04:43;12.00;;;6.60;;
5349;SDS011;2697;42.144;24.794;2023-04-06T06:07:09;10.70;;;6.40;;
5349;SDS011;2697;42.144;24.794;2023-04-06T06:09:35;10.30;;;5.10;;
5349;SDS011;2697;42.144;24.794;2023-04-06T06:12:00;11.27;;;6.43;;
5349;SDS011;2697;42.144;24.794;2023-04-06T06:14:26;10.80;;;5.60;;
5349;SDS011;2697;42.144;24.794;2023-04-06T06:16:53;9.60;;;5.10;;
5349;SDS011;2697;42.144;24.794;2023-04-06T06:19:19;12.90;;;5.93;;
5349;SDS011;2697;42.144;24.794;2023-04-06T06:21:44;10.97;;;5.03;;
5349;SDS011;2697;42.144;24.794;2023-04-06T06:24:10;7.63;;;4.50;;
5349;SDS011;2697;42.144;24.794;2023-04-06T06:26:35;7.30;;;4.30;;
5349;SDS011;2697;42.144;24.794;2023-04-06T06:29:02;5.80;;;4.17;;
5349;SDS011;2697;42.144;24.794;2023-04-06T06:31:28;9.43;;;4.50;;
5349;SDS011;2697;42.144;24.794;2023-04-06T06:33:53;12.63;;;5.97;;
5349;SDS011;2697;42.144;24.794;2023-04-06T06:36:19;10.70;;;4.70;;
5349;SDS011;2697;42.144;24.794;2023-04-06T06:38:44;8.37;;;4.60;;
5349;SDS011;2697;42.144;24.794;2023-04-06T06:41:10;5.40;;;3.67;;
5349;SDS011;2697;42.144;24.794;2023-04-06T06:43:36;6.97;;;4.97;;
5349;SDS011;2697;42.144;24.794;2023-04-06T06:46:01;10.93;;;4.27;;
5349;SDS011;2697;42.144;24.794;2023-04-06T06:48:27;10.93;;;4.50;;
5349;SDS011;2697;42.144;24.794;2023-04-06T06:50:53;6.97;;;4.37;;
5349;SDS011;2697;42.144;24.794;2023-04-06T06:53:18;7.77;;;4.43;;
5349;SDS011;2697;42.144;24.794;2023-04-06T06:55:44;7.80;;;5.00;;
5349;SDS011;2697;42.144;24.794;2023-04-06T06:58:10;7.83;;;4.43;;
5349;SDS011;2697;42.144;24.794;2023-04-06T07:00:35;7.33;;;4.73;;
5349;SDS011;2697;42.144;24.794;2023-04-06T07:03:01;12.77;;;5.67;;
5349;SDS011;2697;42.144;24.794;2023-04-06T07:05:26;10.73;;;5.63;;
5349;SDS011;2697;42.144;24.794;2023-04-06T07:07:52;6.10;;;4.43;;
5349;SDS011;2697;42.144;24.794;2023-04-06T07:10:17;9.80;;;6.13;;
5349;SDS011;2697;42.144;24.794;2023-04-06T07:12:42;7.07;;;3.90;;
5349;SDS011;2697;42.144;24.794;2023-04-06T07:15:08;7.30;;;5.33;;
5349;SDS011;2697;42.144;24.794;2023-04-06T07:17:34;9.47;;;4.80;;
5349;SDS011;2697;42.144;24.794;2023-04-06T07:19:59;8.50;;;4.93;;
5349;SDS011;2697;42.144;24.794;2023-04-06T07:22:25;9.30;;;6.20;;
5349;SDS011;2697;42.144;24.794;2023-04-06T07:24:50;8.33;;;5.57;;
5349;SDS011;2697;42.144;24.794;2023-04-06T07:27:16;9.00;;;5.63;;
5349;SDS011;2697;42.144;24.794;2023-04-06T07:29:42;7.60;;;4.80;;
5349;SDS011;2697;42.144;24.794;2023-04-06T07:32:07;7.73;;;5.00;;
5349;SDS011;2697;42.144;24.794;2023-04-06T07:34:33;4.23;;;3.33;;
5349;SDS011;2697;42.144;24.794;2023-04-06T07:36:58;6.67;;;4.70;;
5349;SDS011;2697;42.144;24.794;2023-04-06T07:39:25;6.30;;;4.00;;
5349;SDS011;2697;42.144;24.794;2023-04-06T07:41:51;4.80;;;3.47;;
5349;SDS011;2697;42.144;24.794;2023-04-06T07:44:17;6.97;;;4.20;;
5349;SDS011;2697;42.144;24.794;2023-04-06T07:46:43;7.47;;;4.83;;
5349;SDS011;2697;42.144;24.794;2023-04-06T07:49:08;8.73;;;4.60;;
5349;SDS011;2697;42.144;24.794;2023-04-06T07:51:35;18.23;;;5.30;;
5349;SDS011;2697;42.144;24.794;2023-04-06T07:54:03;7.27;;;4.60;;
5349;SDS011;2697;42.144;24.794;2023-04-06T07:56:28;7.17;;;4.60;;
5349;SDS011;2697;42.144;24.794;2023-04-06T07:58:54;11.07;;;5.83;;
5349;SDS011;2697;42.144;24.794;2023-04-06T08:01:22;9.00;;;5.57;;
5349;SDS011;2697;42.144;24.794;2023-04-06T08:03:47;6.23;;;3.63;;
5349;SDS011;2697;42.144;24.794;2023-04-06T08:06:13;12.27;;;6.20;;
5349;SDS011;2697;42.144;24.794;2023-04-06T08:08:39;18.00;;;5.87;;
5349;SDS011;2697;42.144;24.794;2023-04-06T08:11:04;8.13;;;5.17;;
5349;SDS011;2697;42.144;24.794;2023-04-06T08:13:30;8.00;;;4.20;;
5349;SDS011;2697;42.144;24.794;2023-04-06T08:15:55;8.77;;;4.93;;
5349;SDS011;2697;42.144;24.794;2023-04-06T08:18:21;8.80;;;4.90;;
5349;SDS011;2697;42.144;24.794;2023-04-06T08:20:47;18.73;;;4.83;;
5349;SDS011;2697;42.144;24.794;2023-04-06T08:23:13;5.80;;;4.20;;
5349;SDS011;2697;42.144;24.794;2023-04-06T08:25:39;7.77;;;4.63;;
5349;SDS011;2697;42.144;24.794;2023-04-06T08:28:04;9.93;;;4.40;;
5349;SDS011;2697;42.144;24.794;2023-04-06T08:30:30;9.43;;;5.60;;
5349;SDS011;2697;42.144;24.794;2023-04-06T08:32:55;8.40;;;5.20;;
5349;SDS011;2697;42.144;24.794;2023-04-06T08:35:21;9.60;;;5.80;;
5349;SDS011;2697;42.144;24.794;2023-04-06T08:37:46;11.63;;;5.30;;
5349;SDS011;2697;42.144;24.794;2023-04-06T08:40:12;7.50;;;4.53;;
5349;SDS011;2697;42.144;24.794;2023-04-06T08:42:49;8.53;;;5.23;;
5349;SDS011;2697;42.144;24.794;2023-04-06T08:45:19;6.73;;;4.47;;
5349;SDS011;2697;42.144;24.794;2023-04-06T08:47:46;8.50;;;5.00;;
5349;SDS011;2697;42.144;24.794;2023-04-06T08:50:17;10.23;;;4.90;;
5349;SDS011;2697;42.144;24.794;2023-04-06T08:52:44;7.40;;;4.17;;
5349;SDS011;2697;42.144;24.794;2023-04-06T08:55:12;11.10;;;4.90;;
5349;SDS011;2697;42.144;24.794;2023-04-06T08:57:38;10.07;;;4.60;;
5349;SDS011;2697;42.144;24.794;2023-04-06T09:00:05;6.47;;;4.20;;
5349;SDS011;2697;42.144;24.794;2023-04-06T09:02:34;6.80;;;3.80;;
5349;SDS011;2697;42.144;24.794;2023-04-06T09:05:07;8.90;;;4.77;;
5349;SDS011;2697;42.144;24.794;2023-04-06T09:07:35;10.00;;;5.00;;
5349;SDS011;2697;42.144;24.794;2023-04-06T09:10:01;5.23;;;4.20;;
5349;SDS011;2697;42.144;24.794;2023-04-06T09:12:27;6.63;;;4.63;;
5349;SDS011;2697;42.144;24.794;2023-04-06T09:14:54;12.93;;;4.67;;
5349;SDS011;2697;42.144;24.794;2023-04-06T09:17:24;7.60;;;4.70;;
5349;SDS011;2697;42.144;24.794;2023-04-06T09:20:00;11.70;;;4.43;;
5349;SDS011;2697;42.144;24.794;2023-04-06T09:22:34;7.93;;;4.53;;
5349;SDS011;2697;42.144;24.794;2023-04-06T09:25:04;6.33;;;4.10;;
5349;SDS011;2697;42.144;24.794;2023-04-06T09:27:33;4.40;;;2.87;;
5349;SDS011;2697;42.144;24.794;2023-04-06T09:32:30;13.10;;;5.47;;
5349;SDS011;2697;42.144;24.794;2023-04-06T09:35:05;7.13;;;3.40;;
5349;SDS011;2697;42.144;24.794;2023-04-06T09:37:33;5.37;;;3.23;;
5349;SDS011;2697;42.144;24.794;2023-04-06T09:40:06;5.53;;;3.40;;
5349;SDS011;2697;42.144;24.794;2023-04-06T09:42:32;3.23;;;2.50;;
5349;SDS011;2697;42.144;24.794;2023-04-06T09:44:59;3.17;;;2.67;;
5349;SDS011;2697;42.144;24.794;2023-04-06T09:47:25;4.23;;;2.93;;
5349;SDS011;2697;42.144;24.794;2023-04-06T09:49:55;4.07;;;2.70;;
5349;SDS011;2697;42.144;24.794;2023-04-06T09:55:05;5.90;;;3.30;;
5349;SDS011;2697;42.144;24.794;2023-04-06T09:57:37;3.37;;;2.73;;
5349;SDS011;2697;42.144;24.794;2023-04-06T10:00:10;4.57;;;3.40;;
5349;SDS011;2697;42.144;24.794;2023-04-06T10:02:50;3.40;;;2.50;;
5349;SDS011;2697;42.144;24.794;2023-04-06T10:08:11;5.97;;;3.40;;
5349;SDS011;2697;42.144;24.794;2023-04-06T10:10:38;11.90;;;3.50;;
5349;SDS011;2697;42.144;24.794;2023-04-06T10:13:04;7.40;;;2.90;;
5349;SDS011;2697;42.144;24.794;2023-04-06T10:15:30;5.63;;;3.50;;
5349;SDS011;2697;42.144;24.794;2023-04-06T10:17:59;5.90;;;2.63;;
5349;SDS011;2697;42.144;24.794;2023-04-06T10:23:13;4.77;;;3.20;;
5349;SDS011;2697;42.144;24.794;2023-04-06T10:25:55;15.33;;;3.67;;
5349;SDS011;2697;42.144;24.794;2023-04-06T10:28:23;16.53;;;4.00;;
5349;SDS011;2697;42.144;24.794;2023-04-06T10:30:49;10.73;;;4.10;;
5349;SDS011;2697;42.144;24.794;2023-04-06T10:33:23;4.77;;;2.67;;
5349;SDS011;2697;42.144;24.794;2023-04-06T10:35:48;3.47;;;2.83;;
5349;SDS011;2697;42.144;24.794;2023-04-06T10:38:14;5.87;;;3.70;;
5349;SDS011;2697;42.144;24.794;2023-04-06T10:40:40;3.87;;;3.23;;
5349;SDS011;2697;42.144;24.794;2023-04-06T10:45:37;5.73;;;3.60;;
5349;SDS011;2697;42.144;24.794;2023-04-06T10:48:13;7.33;;;4.00;;
5349;SDS011;2697;42.144;24.794;2023-04-06T10:50:47;6.00;;;3.50;;
5349;SDS011;2697;42.144;24.794;2023-04-06T10:53:23;5.43;;;4.23;;
5349;SDS011;2697;42.144;24.794;2023-04-06T10:55:51;7.10;;;3.10;;
5349;SDS011;2697;42.144;24.794;2023-04-06T10:58:17;8.00;;;3.43;;
5349;SDS011;2697;42.144;24.794;2023-04-06T11:00:46;8.73;;;2.77;;
5349;SDS011;2697;42.144;24.794;2023-04-06T11:03:13;4.80;;;3.00;;
5349;SDS011;2697;42.144;24.794;2023-04-06T11:05:42;3.03;;;2.23;;
5349;SDS011;2697;42.144;24.794;2023-04-06T11:08:27;27.77;;;3.30;;
5349;SDS011;2697;42.144;24.794;2023-04-06T11:11:04;5.67;;;3.30;;
5349;SDS011;2697;42.144;24.794;2023-04-06T11:13:40;6.27;;;2.63;;
5349;SDS011;2697;42.144;24.794;2023-04-06T11:16:21;4.30;;;2.47;;
5349;SDS011;2697;42.144;24.794;2023-04-06T11:21:31;7.23;;;2.57;;
5349;SDS011;2697;42.144;24.794;2023-04-06T11:24:08;8.80;;;4.13;;
5349;SDS011;2697;42.144;24.794;2023-04-06T11:26:41;3.53;;;2.90;;
5349;SDS011;2697;42.144;24.794;2023-04-06T11:29:15;8.53;;;3.60;;
5349;SDS011;2697;42.144;24.794;2023-04-06T11:31:42;6.70;;;3.20;;
5349;SDS011;2697;42.144;24.794;2023-04-06T11:34:20;7.73;;;3.90;;
5349;SDS011;2697;42.144;24.794;2023-04-06T11:36:48;6.70;;;2.87;;
5349;SDS011;2697;42.144;24.794;2023-04-06T11:39:19;5.70;;;2.87;;
5349;SDS011;2697;42.144;24.794;2023-04-06T11:41:48;5.50;;;4.10;;
5349;SDS011;2697;42.144;24.794;2023-04-06T11:47:15;5.30;;;2.73;;
5349;SDS011;2697;42.144;24.794;2023-04-06T11:49:41;4.53;;;3.37;;
5349;SDS011;2697;42.144;24.794;2023-04-06T11:52:14;4.50;;;3.30;;
5349;SDS011;2697;42.144;24.794;2023-04-06T11:54:40;6.40;;;3.30;;
5349;SDS011;2697;42.144;24.794;2023-04-06T11:57:07;5.10;;;3.10;;
5349;SDS011;2697;42.144;24.794;2023-04-06T11:59:33;7.23;;;4.30;;
5349;SDS011;2697;42.144;24.794;2023-04-06T12:01:58;7.30;;;3.80;;
5349;SDS011;2697;42.144;24.794;2023-04-06T12:04:24;5.40;;;3.50;;
5349;SDS011;2697;42.144;24.794;2023-04-06T12:06:49;5.43;;;3.70;;
5349;SDS011;2697;42.144;24.794;2023-04-06T12:09:16;6.80;;;3.90;;
5349;SDS011;2697;42.144;24.794;2023-04-06T12:11:44;3.93;;;3.37;;
5349;SDS011;2697;42.144;24.794;2023-04-06T12:14:10;7.00;;;3.40;;
5349;SDS011;2697;42.144;24.794;2023-04-06T12:16:36;4.63;;;2.87;;
5349;SDS011;2697;42.144;24.794;2023-04-06T12:19:02;5.17;;;3.37;;
5349;SDS011;2697;42.144;24.794;2023-04-06T12:21:28;5.07;;;3.50;;
5349;SDS011;2697;42.144;24.794;2023-04-06T12:23:55;25.93;;;4.60;;
5349;SDS011;2697;42.144;24.794;2023-04-06T12:26:21;8.50;;;3.80;;
5349;SDS011;2697;42.144;24.794;2023-04-06T12:28:47;5.20;;;3.40;;
5349;SDS011;2697;42.144;24.794;2023-04-06T12:31:19;5.03;;;4.37;;
5349;SDS011;2697;42.144;24.794;2023-04-06T12:33:46;8.83;;;3.83;;
5349;SDS011;2697;42.144;24.794;2023-04-06T12:36:13;5.73;;;3.20;;
5349;SDS011;2697;42.144;24.794;2023-04-06T12:38:39;7.60;;;3.97;;
5349;SDS011;2697;42.144;24.794;2023-04-06T12:41:06;6.40;;;4.30;;
5349;SDS011;2697;42.144;24.794;2023-04-06T12:43:31;6.97;;;3.40;;
5349;SDS011;2697;42.144;24.794;2023-04-06T12:45:57;6.83;;;4.33;;
5349;SDS011;2697;42.144;24.794;2023-04-06T12:48:22;5.50;;;3.30;;
5349;SDS011;2697;42.144;24.794;2023-04-06T12:50:58;5.13;;;4.23;;
5349;SDS011;2697;42.144;24.794;2023-04-06T12:53:24;5.13;;;3.40;;
5349;SDS011;2697;42.144;24.794;2023-04-06T12:55:50;7.33;;;4.67;;
5349;SDS011;2697;42.144;24.794;2023-04-06T12:58:16;8.53;;;4.70;;
5349;SDS011;2697;42.144;24.794;2023-04-06T13:00:42;8.80;;;5.17;;
5349;SDS011;2697;42.144;24.794;2023-04-06T13:03:07;9.73;;;4.37;;
5349;SDS011;2697;42.144;24.794;2023-04-06T13:05:33;8.37;;;3.90;;
5349;SDS011;2697;42.144;24.794;2023-04-06T13:07:58;6.47;;;4.20;;
5349;SDS011;2697;42.144;24.794;2023-04-06T13:10:24;6.53;;;3.97;;
5349;SDS011;2697;42.144;24.794;2023-04-06T13:12:49;7.87;;;3.43;;
5349;SDS011;2697;42.144;24.794;2023-04-06T13:15:14;6.70;;;4.00;;
5349;SDS011;2697;42.144;24.794;2023-04-06T13:17:40;5.57;;;3.80;;
5349;SDS011;2697;42.144;24.794;2023-04-06T13:20:06;6.07;;;4.30;;
5349;SDS011;2697;42.144;24.794;2023-04-06T13:22:32;9.90;;;4.60;;
5349;SDS011;2697;42.144;24.794;2023-04-06T13:24:57;6.63;;;4.70;;
5349;SDS011;2697;42.144;24.794;2023-04-06T13:27:22;7.70;;;4.50;;
5349;SDS011;2697;42.144;24.794;2023-04-06T13:29:48;5.70;;;4.17;;
5349;SDS011;2697;42.144;24.794;2023-04-06T13:32:13;12.60;;;5.20;;
5349;SDS011;2697;42.144;24.794;2023-04-06T13:34:39;6.77;;;4.93;;
5349;SDS011;2697;42.144;24.794;2023-04-06T13:37:05;10.80;;;6.20;;
5349;SDS011;2697;42.144;24.794;2023-04-06T13:39:31;7.70;;;4.40;;
5349;SDS011;2697;42.144;24.794;2023-04-06T13:41:56;9.47;;;5.07;;
5349;SDS011;2697;42.144;24.794;2023-04-06T13:44:22;6.10;;;4.40;;
5349;SDS011;2697;42.144;24.794;2023-04-06T13:46:47;4.10;;;3.37;;
5349;SDS011;2697;42.144;24.794;2023-04-06T13:49:13;8.10;;;4.63;;
5349;SDS011;2697;42.144;24.794;2023-04-06T13:51:40;4.73;;;3.50;;
5349;SDS011;2697;42.144;24.794;2023-04-06T13:54:06;10.10;;;4.70;;
5349;SDS011;2697;42.144;24.794;2023-04-06T13:56:31;6.50;;;4.07;;
5349;SDS011;2697;42.144;24.794;2023-04-06T13:58:57;4.40;;;3.47;;
5349;SDS011;2697;42.144;24.794;2023-04-06T14:01:22;8.93;;;4.80;;
5349;SDS011;2697;42.144;24.794;2023-04-06T14:03:48;7.37;;;4.63;;
5349;SDS011;2697;42.144;24.794;2023-04-06T14:06:14;14.53;;;4.63;;
5349;SDS011;2697;42.144;24.794;2023-04-06T14:08:39;12.60;;;4.00;;
5349;SDS011;2697;42.144;24.794;2023-04-06T14:11:06;5.03;;;3.30;;
5349;SDS011;2697;42.144;24.794;2023-04-06T14:13:37;4.57;;;3.33;;
5349;SDS011;2697;42.144;24.794;2023-04-06T14:16:03;13.97;;;5.43;;
5349;SDS011;2697;42.144;24.794;2023-04-06T14:18:29;7.73;;;3.80;;
5349;SDS011;2697;42.144;24.794;2023-04-06T14:20:56;10.60;;;4.13;;
5349;SDS011;2697;42.144;24.794;2023-04-06T14:23:22;8.80;;;4.37;;
5349;SDS011;2697;42.144;24.794;2023-04-06T14:25:50;9.00;;;3.70;;
5349;SDS011;2697;42.144;24.794;2023-04-06T14:28:16;5.27;;;3.23;;
5349;SDS011;2697;42.144;24.794;2023-04-06T14:30:42;5.77;;;3.30;;
5349;SDS011;2697;42.144;24.794;2023-04-06T14:33:08;7.37;;;4.77;;
5349;SDS011;2697;42.144;24.794;2023-04-06T14:35:33;6.40;;;3.43;;
5349;SDS011;2697;42.144;24.794;2023-04-06T14:37:58;7.67;;;3.63;;
5349;SDS011;2697;42.144;24.794;2023-04-06T14:40:24;6.23;;;3.83;;
5349;SDS011;2697;42.144;24.794;2023-04-06T14:42:50;7.17;;;4.13;;
5349;SDS011;2697;42.144;24.794;2023-04-06T14:45:18;7.50;;;4.97;;
5349;SDS011;2697;42.144;24.794;2023-04-06T14:47:46;5.17;;;3.70;;
5349;SDS011;2697;42.144;24.794;2023-04-06T14:50:12;6.93;;;4.03;;
5349;SDS011;2697;42.144;24.794;2023-04-06T14:52:37;7.73;;;4.93;;
5349;SDS011;2697;42.144;24.794;2023-04-06T14:55:03;7.60;;;4.27;;
5349;SDS011;2697;42.144;24.794;2023-04-06T14:57:29;5.87;;;3.97;;
5349;SDS011;2697;42.144;24.794;2023-04-06T14:59:55;12.63;;;6.40;;
5349;SDS011;2697;42.144;24.794;2023-04-06T15:02:21;7.73;;;4.40;;
5349;SDS011;2697;42.144;24.794;2023-04-06T15:04:46;6.53;;;4.77;;
5349;SDS011;2697;42.144;24.794;2023-04-06T15:07:12;6.43;;;4.30;;
5349;SDS011;2697;42.144;24.794;2023-04-06T15:09:37;7.93;;;3.40;;